Ed's Weather Station

Ed's Weather Station
Located south of Fulton, MO
Lat. 38.75234 N
Lon. 91.96758 W
Elevation 787 ft

GR3 Radar

Current 24 Hours Yesterday Last 48 Hours Last 72 Hours Last 30 Days Yearly Rainfall Yearly Temp Trends Monthly Wind Direction Last 30 Days Temperature Solar Data
Highs and Lows Trends Sun & Moon Rise\Set Times Moon\Solar Info
Local Weather Advisories Area Forecast Discussion Hazardous Weather Outlook U.S. Severe Weather Storm Prediction Center
All Time Records Monthly Records Yearly Records
Weather Gauges MW Weather Network
Local Area Conditions Printable Weather Flyer MO River Information
About Ed's Weather Weather Station Status Weather Graphic Personal Weather Sites
Kansas City NEXRAD Radar Local/Regional Radar Satellite Images
Weather Underground Data Rain Detail Chart
NWS Forecast Details Ed's Forecast Details UV Forecast Pollen Forecast Space Weather
Member of the following organizations:





Local Links:
Callaway County Sheriff

Eds Weather Station - WU Station History
Station Historical Data
Daily Summary for February 14, 2018 Units:  Both    English   Metric
« Previous Day
Next Day »
Daily Weekly Monthly Yearly Custom
  High: Low: Average:
Temperature: TemperatureF °F /  -17.8 °C 38.0 °F /  3.3 °C 49.6 °F /  9.8 °C
Dew Point: DewpointF °F /  -17.8 °C 32.6 °F /  0.3 °C 45.3 °F /  7.4 °C
Humidity: Humidity% 68% 86%
Wind Speed: WindSpeedMPHmph /  0km/h - 3mph /  4.8km/h
Wind Gust: WindSpeedGustMPHmph /  0km/h - -
Wind- - South
Pressure: PressureIn in /  0 hPa 29.87 in /  1011.4 hPa -
Precipitation: 0.00 in /  0 mm    
Historical Graphs
 
 
Tabular Data for February 14, 2018
Time Temperature Dew Point Pressure Wind Wind Speed Wind Gust Humidity Rainfall Rate (Hourly) solar Conditions
TemperatureF °F /  -17.8 °C DewpointF °F /  -17.8 °C PressureInin /  0hPa Calm     Humidity% HourlyPrecipInin /  0mm SolarRadiationWatts/m^2 W/m2 Conditions
00:02 38.9 °F /  3.8 °C 32.6 °F /  0.3 °C 30.27in /  1024.9hPa SSE 2.3mph /  3.7km/h 2.3mph /  3.7km/h 78% 0.00in /  0mm 0.0 W/m2 RA
00:07 38.9 °F /  3.8 °C 32.9 °F /  0.5 °C 30.27in /  1024.9hPa SSE 2.0mph /  3.2km/h 2.0mph /  3.2km/h 79% 0.00in /  0mm 0.0 W/m2 RA
00:12 38.8 °F /  3.8 °C 32.8 °F /  0.4 °C 30.27in /  1024.9hPa SSE 2.3mph /  3.7km/h 2.3mph /  3.7km/h 79% 0.00in /  0mm 0.0 W/m2 OVC
00:17 38.9 °F /  3.8 °C 32.9 °F /  0.5 °C 30.27in /  1024.9hPa SSE 2.3mph /  3.7km/h 2.3mph /  3.7km/h 79% 0.00in /  0mm 0.0 W/m2 OVC
00:22 39.0 °F /  3.9 °C 32.7 °F /  0.4 °C 30.27in /  1024.9hPa South 3.5mph /  5.6km/h 3.5mph /  5.6km/h 78% 0.00in /  0mm 0.0 W/m2 OVC
00:27 39.0 °F /  3.9 °C 33.4 °F /  0.8 °C 30.27in /  1024.9hPa South 3.5mph /  5.6km/h 3.5mph /  5.6km/h 80% 0.00in /  0mm 0.0 W/m2 OVC
00:32 38.9 °F /  3.8 °C 33.9 °F /  1.1 °C 30.27in /  1024.9hPa South 1.2mph /  1.9km/h 1.2mph /  1.9km/h 82% 0.00in /  0mm 0.0 W/m2 OVC
00:37 38.8 °F /  3.8 °C 34.4 °F /  1.3 °C 30.27in /  1024.9hPa South 2.3mph /  3.7km/h 2.3mph /  3.7km/h 84% 0.00in /  0mm 0.0 W/m2 OVC
00:42 38.7 °F /  3.7 °C 34.9 °F /  1.6 °C 30.27in /  1024.9hPa South 2.3mph /  3.7km/h 2.3mph /  3.7km/h 86% 0.00in /  0mm 0.0 W/m2 OVC
00:47 38.5 °F /  3.6 °C 35.0 °F /  1.7 °C 30.27in /  1024.9hPa Calm     87% 0.00in /  0mm 0.0 W/m2 OVC
00:52 38.3 °F /  3.5 °C 35.3 °F /  1.8 °C 30.27in /  1024.9hPa South 1.2mph /  1.9km/h 1.2mph /  1.9km/h 89% 0.00in /  0mm 0.0 W/m2 OVC
00:57 38.3 °F /  3.5 °C 35.3 °F /  1.8 °C 30.27in /  1024.9hPa South 2.3mph /  3.7km/h 2.3mph /  3.7km/h 89% 0.00in /  0mm 0.0 W/m2 OVC
01:02 38.2 °F /  3.4 °C 35.2 °F /  1.8 °C 30.27in /  1024.9hPa South 2.3mph /  3.7km/h 2.3mph /  3.7km/h 89% 0.00in /  0mm 0.0 W/m2 OVC
01:07 38.2 °F /  3.4 °C 35.5 °F /  1.9 °C 30.26in /  1024.6hPa South 1.2mph /  1.9km/h 1.2mph /  1.9km/h 90% 0.00in /  0mm 0.0 W/m2 OVC
01:12 38.1 °F /  3.4 °C 35.4 °F /  1.9 °C 30.26in /  1024.6hPa South 1.2mph /  1.9km/h   90% 0.00in /  0mm 0.0 W/m2 OVC
01:17 38.1 °F /  3.4 °C 35.4 °F /  1.9 °C 30.26in /  1024.6hPa South 2.3mph /  3.7km/h 2.3mph /  3.7km/h 90% 0.00in /  0mm 0.0 W/m2 OVC
01:22 38.1 °F /  3.4 °C 35.4 °F /  1.9 °C 30.26in /  1024.6hPa South 2.3mph /  3.7km/h 2.3mph /  3.7km/h 90% 0.00in /  0mm 0.0 W/m2 OVC
01:27 38.1 °F /  3.4 °C 35.4 °F /  1.9 °C 30.26in /  1024.6hPa South 2.3mph /  3.7km/h 2.3mph /  3.7km/h 90% 0.00in /  0mm 0.0 W/m2 OVC
01:32 38.0 °F /  3.3 °C 35.3 °F /  1.8 °C 30.26in /  1024.6hPa South 1.2mph /  1.9km/h 1.2mph /  1.9km/h 90% 0.00in /  0mm 0.0 W/m2 OVC
01:37 38.0 °F /  3.3 °C 35.3 °F /  1.8 °C 30.25in /  1024.3hPa South 3.5mph /  5.6km/h 3.5mph /  5.6km/h 90% 0.00in /  0mm 0.0 W/m2 OVC
01:42 38.1 °F /  3.4 °C 35.7 °F /  2.1 °C 30.25in /  1024.3hPa South 3.5mph /  5.6km/h 3.5mph /  5.6km/h 91% 0.00in /  0mm 0.0 W/m2 OVC
01:47 38.1 °F /  3.4 °C 35.7 °F /  2.1 °C 30.25in /  1024.3hPa South 2.3mph /  3.7km/h 2.3mph /  3.7km/h 91% 0.00in /  0mm 0.0 W/m2 OVC
01:52 38.1 °F /  3.4 °C 36.0 °F /  2.2 °C 30.24in /  1023.9hPa South 1.2mph /  1.9km/h 1.2mph /  1.9km/h 92% 0.00in /  0mm 0.0 W/m2 OVC
01:57 38.2 °F /  3.4 °C 36.1 °F /  2.3 °C 30.24in /  1023.9hPa South 1.0mph /  1.6km/h 1.0mph /  1.6km/h 92% 0.00in /  0mm 0.0 W/m2 OVC
02:02 38.3 °F /  3.5 °C 36.2 °F /  2.3 °C 30.24in /  1023.9hPa South 1.2mph /  1.9km/h 1.2mph /  1.9km/h 92% 0.00in /  0mm 0.0 W/m2 OVC
02:07 38.4 °F /  3.6 °C 36.3 °F /  2.4 °C 30.24in /  1023.9hPa South 1.2mph /  1.9km/h 1.2mph /  1.9km/h 92% 0.00in /  0mm 0.0 W/m2 OVC
02:12 38.4 °F /  3.6 °C 36.3 °F /  2.4 °C 30.24in /  1023.9hPa South 2.3mph /  3.7km/h 2.3mph /  3.7km/h 92% 0.00in /  0mm 0.0 W/m2 OVC
02:17 38.4 °F /  3.6 °C 36.3 °F /  2.4 °C 30.24in /  1023.9hPa South 1.2mph /  1.9km/h 1.2mph /  1.9km/h 92% 0.00in /  0mm 0.0 W/m2 OVC
02:22 38.4 °F /  3.6 °C 36.3 °F /  2.4 °C 30.23in /  1023.6hPa South 2.3mph /  3.7km/h 2.3mph /  3.7km/h 92% 0.00in /  0mm 0.0 W/m2 OVC
02:27 38.4 °F /  3.6 °C 36.3 °F /  2.4 °C 30.23in /  1023.6hPa SSE 2.3mph /  3.7km/h 2.3mph /  3.7km/h 92% 0.00in /  0mm 0.0 W/m2 OVC
02:32 38.5 °F /  3.6 °C 36.7 °F /  2.6 °C 30.23in /  1023.6hPa SSE 1.2mph /  1.9km/h 1.2mph /  1.9km/h 93% 0.00in /  0mm 0.0 W/m2 OVC
02:37 38.5 °F /  3.6 °C 36.7 °F /  2.6 °C 30.23in /  1023.6hPa Calm     93% 0.00in /  0mm 0.0 W/m2 OVC
02:42 38.4 °F /  3.6 °C 36.3 °F /  2.4 °C 30.23in /  1023.6hPa Calm     92% 0.00in /  0mm 0.0 W/m2 OVC
02:47 38.3 °F /  3.5 °C 36.2 °F /  2.3 °C 30.23in /  1023.6hPa SSE 1.2mph /  1.9km/h   92% 0.00in /  0mm 0.0 W/m2 OVC
02:52 38.4 °F /  3.6 °C 36.6 °F /  2.6 °C 30.23in /  1023.6hPa SSE 1.2mph /  1.9km/h 1.2mph /  1.9km/h 93% 0.00in /  0mm 0.0 W/m2 OVC
02:57 38.5 °F /  3.6 °C 36.7 °F /  2.6 °C 30.22in /  1023.2hPa SSE 2.3mph /  3.7km/h 2.3mph /  3.7km/h 93% 0.00in /  0mm 0.0 W/m2 OVC
03:02 38.6 °F /  3.7 °C 37.0 °F /  2.8 °C 30.22in /  1023.2hPa Calm     94% 0.00in /  0mm 0.0 W/m2 OVC
03:07 38.6 °F /  3.7 °C 37.0 °F /  2.8 °C 30.21in /  1022.9hPa Calm     94% 0.00in /  0mm 0.0 W/m2 OVC
03:12 38.5 °F /  3.6 °C 36.9 °F /  2.7 °C 30.22in /  1023.2hPa Calm     94% 0.00in /  0mm 0.0 W/m2 OVC
03:17 38.6 °F /  3.7 °C 37.0 °F /  2.8 °C 30.21in /  1022.9hPa South 3.5mph /  5.6km/h 3.5mph /  5.6km/h 94% 0.00in /  0mm 0.0 W/m2 OVC
03:22 38.8 °F /  3.8 °C 37.2 °F /  2.9 °C 30.21in /  1022.9hPa South 1.0mph /  1.6km/h 1.0mph /  1.6km/h 94% 0.00in /  0mm 0.0 W/m2 OVC
03:27 39.1 °F /  3.9 °C 37.8 °F /  3.2 °C 30.21in /  1022.9hPa South 2.3mph /  3.7km/h 2.3mph /  3.7km/h 95% 0.00in /  0mm 0.0 W/m2 OVC
03:32 39.2 °F /  4 °C 37.9 °F /  3.3 °C 30.21in /  1022.9hPa South 1.2mph /  1.9km/h   95% 0.00in /  0mm 0.0 W/m2 OVC
03:33 39.2 °F /  4 °C 37.9 °F /  3.3 °C 30.21in /  1022.9hPa Calm     95% 0.00in /  0mm 0.0 W/m2 OVC
03:38 39.3 °F /  4.1 °C 38.0 °F /  3.3 °C 30.21in /  1022.9hPa Calm     95% 0.00in /  0mm 0.0 W/m2 OVC
03:43 39.4 °F /  4.1 °C 38.1 °F /  3.4 °C 30.21in /  1022.9hPa SSE 1.2mph /  1.9km/h 1.2mph /  1.9km/h 95% 0.00in /  0mm 0.0 W/m2 OVC
03:48 39.4 °F /  4.1 °C 38.1 °F /  3.4 °C 30.21in /  1022.9hPa South 2.3mph /  3.7km/h 2.3mph /  3.7km/h 95% 0.00in /  0mm 0.0 W/m2 OVC
03:53 39.4 °F /  4.1 °C 38.1 °F /  3.4 °C 30.21in /  1022.9hPa Calm     95% 0.00in /  0mm 0.0 W/m2 OVC
03:58 39.4 °F /  4.1 °C 38.1 °F /  3.4 °C 30.20in /  1022.6hPa Calm     95% 0.00in /  0mm 0.0 W/m2 OVC
04:03 39.3 °F /  4.1 °C 38.0 °F /  3.3 °C 30.20in /  1022.6hPa Calm     95% 0.00in /  0mm 0.0 W/m2 -RA
04:08 39.2 °F /  4 °C 37.9 °F /  3.3 °C 30.20in /  1022.6hPa Calm     95% 0.00in /  0mm 0.0 W/m2 -RA
04:13 39.1 °F /  3.9 °C 37.8 °F /  3.2 °C 30.19in /  1022.2hPa Calm     95% 0.00in /  0mm 0.0 W/m2 -RA
04:18 39.1 °F /  3.9 °C 37.8 °F /  3.2 °C 30.19in /  1022.2hPa South 1.2mph /  1.9km/h   95% 0.00in /  0mm 0.0 W/m2 -RA
04:23 39.1 °F /  3.9 °C 37.8 °F /  3.2 °C 30.19in /  1022.2hPa Calm     95% 0.00in /  0mm 0.0 W/m2 -RA
04:28 39.1 °F /  3.9 °C 37.8 °F /  3.2 °C 30.19in /  1022.2hPa Calm     95% 0.00in /  0mm 0.0 W/m2 -RA
04:33 39.1 °F /  3.9 °C 37.8 °F /  3.2 °C 30.19in /  1022.2hPa Calm     95% 0.00in /  0mm 0.0 W/m2 -RA
04:38 39.1 °F /  3.9 °C 37.8 °F /  3.2 °C 30.19in /  1022.2hPa Calm     95% 0.00in /  0mm 0.0 W/m2 -RA
04:43 39.2 °F /  4 °C 37.9 °F /  3.3 °C 30.19in /  1022.2hPa Calm     95% 0.00in /  0mm 0.0 W/m2 -RA
04:48 39.4 °F /  4.1 °C 38.1 °F /  3.4 °C 30.19in /  1022.2hPa Calm     95% 0.00in /  0mm 0.0 W/m2 -RA
04:53 39.5 °F /  4.2 °C 38.5 °F /  3.6 °C 30.19in /  1022.2hPa Calm     96% 0.00in /  0mm 0.0 W/m2 -RA
04:58 39.7 °F /  4.3 °C 38.7 °F /  3.7 °C 30.19in /  1022.2hPa South 1.2mph /  1.9km/h   96% 0.00in /  0mm 0.0 W/m2 -RA
05:03 39.8 °F /  4.3 °C 38.8 °F /  3.8 °C 30.18in /  1021.9hPa South 2.0mph /  3.2km/h 2.0mph /  3.2km/h 96% 0.00in /  0mm 0.0 W/m2 OVC
05:08 39.9 °F /  4.4 °C 38.9 °F /  3.8 °C 30.18in /  1021.9hPa Calm     96% 0.00in /  0mm 0.0 W/m2 OVC
05:13 40.1 °F /  4.5 °C 39.1 °F /  3.9 °C 30.19in /  1022.2hPa SSW 2.3mph /  3.7km/h 2.3mph /  3.7km/h 96% 0.00in /  0mm 0.0 W/m2 OVC
05:18 40.2 °F /  4.6 °C 39.2 °F /  4 °C 30.19in /  1022.2hPa SSW 2.3mph /  3.7km/h   96% 0.00in /  0mm 0.0 W/m2 OVC
05:23 40.4 °F /  4.7 °C 39.4 °F /  4.1 °C 30.19in /  1022.2hPa South 2.0mph /  3.2km/h 2.0mph /  3.2km/h 96% 0.00in /  0mm 0.0 W/m2 OVC
05:28 40.5 °F /  4.7 °C 39.4 °F /  4.1 °C 30.19in /  1022.2hPa South 2.3mph /  3.7km/h 2.3mph /  3.7km/h 96% 0.00in /  0mm 0.0 W/m2 OVC
05:33 40.5 °F /  4.7 °C 39.4 °F /  4.1 °C 30.18in /  1021.9hPa South 1.2mph /  1.9km/h 1.2mph /  1.9km/h 96% 0.00in /  0mm 0.0 W/m2 OVC
05:38 40.4 °F /  4.7 °C 39.4 °F /  4.1 °C 30.18in /  1021.9hPa South 2.3mph /  3.7km/h 2.3mph /  3.7km/h 96% 0.00in /  0mm 0.0 W/m2 OVC
05:43 40.3 °F /  4.6 °C 39.3 °F /  4.1 °C 30.18in /  1021.9hPa Calm     96% 0.00in /  0mm 0.0 W/m2 OVC
05:48 40.3 °F /  4.6 °C 39.3 °F /  4.1 °C 30.17in /  1021.6hPa Calm     96% 0.00in /  0mm 0.0 W/m2 OVC
05:53 40.4 °F /  4.7 °C 39.4 °F /  4.1 °C 30.17in /  1021.6hPa South 1.2mph /  1.9km/h 1.2mph /  1.9km/h 96% 0.00in /  0mm 0.0 W/m2 OVC
05:58 40.4 °F /  4.7 °C 39.4 °F /  4.1 °C 30.17in /  1021.6hPa SE 1.2mph /  1.9km/h 1.2mph /  1.9km/h 96% 0.00in /  0mm 0.0 W/m2 OVC
06:03 40.3 °F /  4.6 °C 39.3 °F /  4.1 °C 30.17in /  1021.6hPa SSE 2.3mph /  3.7km/h 2.3mph /  3.7km/h 96% 0.00in /  0mm 0.0 W/m2 -RA
06:09 40.4 °F /  4.7 °C 39.4 °F /  4.1 °C 30.17in /  1021.6hPa SE 2.3mph /  3.7km/h 2.3mph /  3.7km/h 96% 0.00in /  0mm 0.0 W/m2 -RA
06:13 40.4 °F /  4.7 °C 39.4 °F /  4.1 °C 30.17in /  1021.6hPa SE 2.3mph /  3.7km/h 2.3mph /  3.7km/h 96% 0.00in /  0mm 0.0 W/m2 -RA
06:19 40.5 °F /  4.7 °C 39.4 °F /  4.1 °C 30.17in /  1021.6hPa SE 1.2mph /  1.9km/h 1.2mph /  1.9km/h 96% 0.00in /  0mm 0.0 W/m2 -RA
06:24 40.5 °F /  4.7 °C 39.4 °F /  4.1 °C 30.16in /  1021.2hPa SE 2.0mph /  3.2km/h 2.0mph /  3.2km/h 96% 0.00in /  0mm 0.0 W/m2 -RA
06:29 40.5 °F /  4.7 °C 39.4 °F /  4.1 °C 30.16in /  1021.2hPa SE 1.2mph /  1.9km/h 1.2mph /  1.9km/h 96% 0.00in /  0mm 0.0 W/m2 -RA
06:34 40.4 °F /  4.7 °C 39.4 °F /  4.1 °C 30.16in /  1021.2hPa SE 1.2mph /  1.9km/h 1.2mph /  1.9km/h 96% 0.00in /  0mm 0.0 W/m2 -RA
06:39 40.6 °F /  4.8 °C 39.5 °F /  4.2 °C 30.16in /  1021.2hPa SSE 2.3mph /  3.7km/h 2.3mph /  3.7km/h 96% 0.00in /  0mm 0.0 W/m2 -RA
06:44 40.8 °F /  4.9 °C 39.7 °F /  4.3 °C 30.16in /  1021.2hPa South 3.5mph /  5.6km/h 3.5mph /  5.6km/h 96% 0.00in /  0mm 0.0 W/m2 -RA
06:49 40.8 °F /  4.9 °C 39.7 °F /  4.3 °C 30.16in /  1021.2hPa South 2.0mph /  3.2km/h 2.0mph /  3.2km/h 96% 0.00in /  0mm 0.0 W/m2 -RA
06:54 40.9 °F /  4.9 °C 39.8 °F /  4.3 °C 30.16in /  1021.2hPa SSW 3.5mph /  5.6km/h 3.5mph /  5.6km/h 96% 0.00in /  0mm 0.0 W/m2 -RA
06:59 40.9 °F /  4.9 °C 39.8 °F /  4.3 °C 30.15in /  1020.9hPa South 1.2mph /  1.9km/h   96% 0.00in /  0mm 0.0 W/m2 -RA
07:04 41.0 °F /  5 °C 39.9 °F /  4.4 °C 30.15in /  1020.9hPa Calm     96% 0.00in /  0mm 0.0 W/m2 OVC
07:09 41.1 °F /  5.1 °C 40.0 °F /  4.4 °C 30.16in /  1021.2hPa Calm     96% 0.00in /  0mm 0.0 W/m2 OVC
07:14 41.1 °F /  5.1 °C 40.0 °F /  4.4 °C 30.16in /  1021.2hPa Calm     96% 0.00in /  0mm 0.0 W/m2 OVC
07:19 41.1 °F /  5.1 °C 40.3 °F /  4.6 °C 30.15in /  1020.9hPa Calm     97% 0.00in /  0mm 0.0 W/m2 OVC
07:24 41.3 °F /  5.2 °C 40.5 °F /  4.7 °C 30.15in /  1020.9hPa SSE 3.5mph /  5.6km/h 3.5mph /  5.6km/h 97% 0.00in /  0mm 5.0 W/m2 OVC
07:29 41.5 °F /  5.3 °C 40.4 °F /  4.7 °C 30.15in /  1020.9hPa South 4.6mph /  7.4km/h 4.6mph /  7.4km/h 96% 0.00in /  0mm 7.0 W/m2 OVC
07:34 41.7 °F /  5.4 °C 40.9 °F /  4.9 °C 30.15in /  1020.9hPa South 2.3mph /  3.7km/h 2.3mph /  3.7km/h 97% 0.00in /  0mm 7.0 W/m2 OVC
07:39 41.8 °F /  5.4 °C 41.0 °F /  5 °C 30.15in /  1020.9hPa South 1.2mph /  1.9km/h   97% 0.00in /  0mm 11.0 W/m2 OVC
07:44 41.9 °F /  5.5 °C 41.1 °F /  5.1 °C 30.15in /  1020.9hPa SSW 4.0mph /  6.4km/h 4.0mph /  6.4km/h 97% 0.00in /  0mm 9.0 W/m2 OVC
07:49 42.1 °F /  5.6 °C 41.3 °F /  5.2 °C 30.15in /  1020.9hPa South 4.6mph /  7.4km/h 4.6mph /  7.4km/h 97% 0.00in /  0mm 9.0 W/m2 OVC
07:54 42.1 °F /  5.6 °C 41.3 °F /  5.2 °C 30.15in /  1020.9hPa South 3.5mph /  5.6km/h 3.5mph /  5.6km/h 97% 0.00in /  0mm 7.0 W/m2 OVC
07:59 42.2 °F /  5.7 °C 41.4 °F /  5.2 °C 30.15in /  1020.9hPa South 5.8mph /  9.3km/h 5.8mph /  9.3km/h 97% 0.00in /  0mm 12.0 W/m2 OVC
08:04 42.2 °F /  5.7 °C 41.4 °F /  5.2 °C 30.15in /  1020.9hPa South 3.5mph /  5.6km/h 3.5mph /  5.6km/h 97% 0.00in /  0mm 11.0 W/m2 OVC
08:09 42.2 °F /  5.7 °C 41.4 °F /  5.2 °C 30.15in /  1020.9hPa South 3.5mph /  5.6km/h 3.5mph /  5.6km/h 97% 0.00in /  0mm 12.0 W/m2 OVC
08:14 42.3 °F /  5.7 °C 41.5 °F /  5.3 °C 30.16in /  1021.2hPa SSE 4.0mph /  6.4km/h 4.0mph /  6.4km/h 97% 0.00in /  0mm 11.0 W/m2 OVC
08:19 42.3 °F /  5.7 °C 41.5 °F /  5.3 °C 30.16in /  1021.2hPa SSE 4.0mph /  6.4km/h 4.0mph /  6.4km/h 97% 0.00in /  0mm 14.0 W/m2 OVC
08:24 42.4 °F /  5.8 °C 41.6 °F /  5.3 °C 30.15in /  1020.9hPa South 5.8mph /  9.3km/h 5.8mph /  9.3km/h 97% 0.00in /  0mm 16.0 W/m2 OVC
08:29 42.5 °F /  5.8 °C 41.7 °F /  5.4 °C 30.15in /  1020.9hPa SSE 3.5mph /  5.6km/h 3.5mph /  5.6km/h 97% 0.00in /  0mm 25.0 W/m2 OVC
08:34 42.8 °F /  6 °C 42.0 °F /  5.6 °C 30.15in /  1020.9hPa South 2.3mph /  3.7km/h 2.3mph /  3.7km/h 97% 0.00in /  0mm 25.0 W/m2 OVC
08:39 42.9 °F /  6.1 °C 42.1 °F /  5.6 °C 30.15in /  1020.9hPa South 3.5mph /  5.6km/h 3.5mph /  5.6km/h 97% 0.00in /  0mm 32.0 W/m2 OVC
08:44 43.1 °F /  6.2 °C 42.3 °F /  5.7 °C 30.14in /  1020.5hPa South 3.5mph /  5.6km/h 3.5mph /  5.6km/h 97% 0.00in /  0mm 25.0 W/m2 OVC
08:49 43.3 °F /  6.3 °C 42.5 °F /  5.8 °C 30.15in /  1020.9hPa SSW 3.5mph /  5.6km/h 3.5mph /  5.6km/h 97% 0.00in /  0mm 23.0 W/m2 OVC
08:54 43.3 °F /  6.3 °C 42.5 °F /  5.8 °C 30.14in /  1020.5hPa South 4.6mph /  7.4km/h 4.6mph /  7.4km/h 97% 0.00in /  0mm 32.0 W/m2 OVC
08:59 43.4 °F /  6.3 °C 42.6 °F /  5.9 °C 30.14in /  1020.5hPa South 5.8mph /  9.3km/h 5.8mph /  9.3km/h 97% 0.00in /  0mm 53.0 W/m2 OVC
09:04 43.7 °F /  6.5 °C 42.9 °F /  6.1 °C 30.13in /  1020.2hPa South 3.0mph /  4.8km/h 3.0mph /  4.8km/h 97% 0.00in /  0mm 65.0 W/m2 OVC
09:09 43.9 °F /  6.6 °C 43.1 °F /  6.2 °C 30.14in /  1020.5hPa South 2.3mph /  3.7km/h 2.3mph /  3.7km/h 97% 0.00in /  0mm 42.0 W/m2 OVC
09:14 44.2 °F /  6.8 °C 43.4 °F /  6.3 °C 30.14in /  1020.5hPa SSW 4.6mph /  7.4km/h 4.6mph /  7.4km/h 97% 0.00in /  0mm 56.0 W/m2 OVC
09:19 44.4 °F /  6.9 °C 43.6 °F /  6.4 °C 30.13in /  1020.2hPa South 3.5mph /  5.6km/h 3.5mph /  5.6km/h 97% 0.00in /  0mm 125.0 W/m2 OVC
09:24 44.8 °F /  7.1 °C 44.0 °F /  6.7 °C 30.13in /  1020.2hPa South 3.5mph /  5.6km/h 3.5mph /  5.6km/h 97% 0.00in /  0mm 91.0 W/m2 OVC
09:29 45.3 °F /  7.4 °C 44.5 °F /  6.9 °C 30.13in /  1020.2hPa South 5.8mph /  9.3km/h 5.8mph /  9.3km/h 97% 0.00in /  0mm 109.0 W/m2 OVC
09:34 45.8 °F /  7.7 °C 45.0 °F /  7.2 °C 30.12in /  1019.9hPa SSW 2.3mph /  3.7km/h 2.3mph /  3.7km/h 97% 0.00in /  0mm 93.0 W/m2 OVC
09:39 46.0 °F /  7.8 °C 45.2 °F /  7.3 °C 30.12in /  1019.9hPa South 5.0mph /  8km/h 5.0mph /  8km/h 97% 0.00in /  0mm 97.0 W/m2 OVC
09:44 46.1 °F /  7.8 °C 45.3 °F /  7.4 °C 30.12in /  1019.9hPa South 5.0mph /  8km/h 5.0mph /  8km/h 97% 0.00in /  0mm 151.0 W/m2 OVC
09:49 46.6 °F /  8.1 °C 45.8 °F /  7.7 °C 30.11in /  1019.5hPa SSW 5.8mph /  9.3km/h 5.8mph /  9.3km/h 97% 0.00in /  0mm 100.0 W/m2 OVC
09:54 46.8 °F /  8.2 °C 46.0 °F /  7.8 °C 30.11in /  1019.5hPa SSW 5.8mph /  9.3km/h 5.8mph /  9.3km/h 97% 0.00in /  0mm 118.0 W/m2 OVC
09:59 47.2 °F /  8.4 °C 46.4 °F /  8 °C 30.11in /  1019.5hPa SW 3.5mph /  5.6km/h 3.5mph /  5.6km/h 97% 0.00in /  0mm 91.0 W/m2 OVC
10:04 47.4 °F /  8.6 °C 46.6 °F /  8.1 °C 30.11in /  1019.5hPa SSW 3.5mph /  5.6km/h 3.5mph /  5.6km/h 97% 0.00in /  0mm 77.0 W/m2 OVC
10:09 47.6 °F /  8.7 °C 46.8 °F /  8.2 °C 30.11in /  1019.5hPa South 4.6mph /  7.4km/h 4.6mph /  7.4km/h 97% 0.00in /  0mm 86.0 W/m2 OVC
10:14 47.8 °F /  8.8 °C 47.0 °F /  8.3 °C 30.11in /  1019.5hPa SSW 4.6mph /  7.4km/h 4.6mph /  7.4km/h 97% 0.00in /  0mm 63.0 W/m2 OVC
10:19 48.2 °F /  9 °C 47.1 °F /  8.4 °C 30.11in /  1019.5hPa SW 4.6mph /  7.4km/h 4.6mph /  7.4km/h 96% 0.00in /  0mm 86.0 W/m2 OVC
10:24 48.5 °F /  9.2 °C 47.1 °F /  8.4 °C 30.10in /  1019.2hPa SSW 4.6mph /  7.4km/h 4.6mph /  7.4km/h 95% 0.00in /  0mm 86.0 W/m2 OVC
10:29 48.8 °F /  9.3 °C 46.9 °F /  8.3 °C 30.10in /  1019.2hPa South 5.8mph /  9.3km/h 5.8mph /  9.3km/h 93% 0.00in /  0mm 84.0 W/m2 OVC
10:34 49.1 °F /  9.5 °C 46.9 °F /  8.3 °C 30.10in /  1019.2hPa SW 3.5mph /  5.6km/h 3.5mph /  5.6km/h 92% 0.00in /  0mm 98.0 W/m2 OVC
10:39 49.4 °F /  9.7 °C 46.9 °F /  8.3 °C 30.10in /  1019.2hPa SW 5.8mph /  9.3km/h 5.8mph /  9.3km/h 91% 0.00in /  0mm 100.0 W/m2 OVC
10:44 49.7 °F /  9.8 °C 46.9 °F /  8.3 °C 30.10in /  1019.2hPa SW 4.6mph /  7.4km/h 4.6mph /  7.4km/h 90% 0.00in /  0mm 163.0 W/m2 OVC
10:49 50.3 °F /  10.2 °C 47.5 °F /  8.6 °C 30.10in /  1019.2hPa SSW 4.6mph /  7.4km/h 4.6mph /  7.4km/h 90% 0.00in /  0mm 144.0 W/m2 OVC
10:54 50.8 °F /  10.4 °C 47.7 °F /  8.7 °C 30.09in /  1018.8hPa SW 3.5mph /  5.6km/h 3.5mph /  5.6km/h 89% 0.00in /  0mm 105.0 W/m2 OVC
10:59 51.2 °F /  10.7 °C 47.8 °F /  8.8 °C 30.09in /  1018.8hPa SW 5.8mph /  9.3km/h 5.8mph /  9.3km/h 88% 0.00in /  0mm 176.0 W/m2 OVC
11:04 51.6 °F /  10.9 °C 47.9 °F /  8.8 °C 30.09in /  1018.8hPa SW 4.6mph /  7.4km/h 4.6mph /  7.4km/h 87% 0.00in /  0mm 299.0 W/m2 OVC
11:09 52.4 °F /  11.3 °C 48.6 °F /  9.2 °C 30.08in /  1018.5hPa SW 3.5mph /  5.6km/h 3.5mph /  5.6km/h 87% 0.00in /  0mm 464.0 W/m2 OVC
11:14 53.5 °F /  11.9 °C 49.1 °F /  9.5 °C 30.08in /  1018.5hPa SW 4.6mph /  7.4km/h 4.6mph /  7.4km/h 85% 0.00in /  0mm 258.0 W/m2 OVC
11:19 54.4 °F /  12.4 °C 49.3 °F /  9.6 °C 30.08in /  1018.5hPa SSW 4.6mph /  7.4km/h 4.6mph /  7.4km/h 83% 0.00in /  0mm 255.0 W/m2 OVC
11:24 55.0 °F /  12.8 °C 48.9 °F /  9.4 °C 30.08in /  1018.5hPa SW 4.0mph /  6.4km/h 4.0mph /  6.4km/h 80% 0.00in /  0mm 257.0 W/m2 OVC
11:29 55.7 °F /  13.2 °C 49.6 °F /  9.8 °C 30.08in /  1018.5hPa SW 4.6mph /  7.4km/h 4.6mph /  7.4km/h 80% 0.00in /  0mm 432.0 W/m2 OVC
11:34 56.5 °F /  13.6 °C 49.4 °F /  9.7 °C 30.07in /  1018.2hPa South 5.0mph /  8km/h 5.0mph /  8km/h 77% 0.00in /  0mm 541.0 W/m2 OVC
11:39 57.0 °F /  13.9 °C 49.9 °F /  9.9 °C 30.06in /  1017.8hPa SW 4.6mph /  7.4km/h 4.6mph /  7.4km/h 77% 0.00in /  0mm 487.0 W/m2 OVC
11:44 57.6 °F /  14.2 °C 49.4 °F /  9.7 °C 30.06in /  1017.8hPa SW 6.9mph /  11.1km/h 6.9mph /  11.1km/h 74% 0.00in /  0mm 489.0 W/m2 OVC
11:49 58.2 °F /  14.6 °C 49.6 °F /  9.8 °C 30.05in /  1017.5hPa South 3.5mph /  5.6km/h 3.5mph /  5.6km/h 73% 0.00in /  0mm 332.0 W/m2 OVC
11:54 58.0 °F /  14.4 °C 49.4 °F /  9.7 °C 30.05in /  1017.5hPa SW 4.6mph /  7.4km/h 4.6mph /  7.4km/h 73% 0.00in /  0mm 415.0 W/m2 OVC
11:59 58.0 °F /  14.4 °C 49.4 °F /  9.7 °C 30.04in /  1017.2hPa SW 8.1mph /  13km/h 8.1mph /  13km/h 73% 0.00in /  0mm 403.0 W/m2 OVC
12:04 58.2 °F /  14.6 °C 49.2 °F /  9.6 °C 30.04in /  1017.2hPa South 4.6mph /  7.4km/h 4.6mph /  7.4km/h 72% 0.00in /  0mm 362.0 W/m2 OVC
12:09 58.5 °F /  14.7 °C 49.5 °F /  9.7 °C 30.04in /  1017.2hPa SSW 11.5mph /  18.5km/h 11.5mph /  18.5km/h 72% 0.00in /  0mm 418.0 W/m2 OVC
12:14 58.0 °F /  14.4 °C 49.4 °F /  9.7 °C 30.03in /  1016.8hPa SSE 6.9mph /  11.1km/h 6.9mph /  11.1km/h 73% 0.00in /  0mm 236.0 W/m2 OVC
12:19 58.1 °F /  14.5 °C 49.9 °F /  9.9 °C 30.02in /  1016.5hPa SW 4.6mph /  7.4km/h 4.6mph /  7.4km/h 74% 0.00in /  0mm 404.0 W/m2 OVC
12:24 58.4 °F /  14.7 °C 49.8 °F /  9.9 °C 30.02in /  1016.5hPa South 4.6mph /  7.4km/h 4.6mph /  7.4km/h 73% 0.00in /  0mm 287.0 W/m2 OVC
12:29 58.5 °F /  14.7 °C 49.9 °F /  9.9 °C 30.01in /  1016.1hPa SSW 6.9mph /  11.1km/h 6.9mph /  11.1km/h 73% 0.00in /  0mm 353.0 W/m2 OVC
12:34 58.9 °F /  14.9 °C 50.3 °F /  10.2 °C 30.01in /  1016.1hPa SSW 3.5mph /  5.6km/h 3.6mph /  5.8km/h 73% 0.00in /  0mm 355.0 W/m2 OVC
12:39 59.6 °F /  15.3 °C 50.2 °F /  10.1 °C 30.01in /  1016.1hPa SSW 5.8mph /  9.3km/h 5.8mph /  9.3km/h 71% 0.00in /  0mm 436.0 W/m2 OVC
12:44 59.4 °F /  15.2 °C 50.0 °F /  10 °C 30.00in /  1015.8hPa South 4.6mph /  7.4km/h 4.6mph /  7.4km/h 71% 0.00in /  0mm 253.0 W/m2 OVC
12:49 59.5 °F /  15.3 °C 50.1 °F /  10.1 °C 30.00in /  1015.8hPa SSW 8.1mph /  13km/h 8.1mph /  13km/h 71% 0.00in /  0mm 232.0 W/m2 OVC
12:54 58.5 °F /  14.7 °C 49.5 °F /  9.7 °C 30.00in /  1015.8hPa SSW 13.8mph /  22.2km/h 13.8mph /  22.2km/h 72% 0.00in /  0mm 278.0 W/m2 OVC
12:59 58.8 °F /  14.9 °C 50.2 °F /  10.1 °C 30.00in /  1015.8hPa SSW 11.5mph /  18.5km/h 11.5mph /  18.5km/h 73% 0.00in /  0mm 550.0 W/m2 OVC
13:04 59.6 °F /  15.3 °C 50.6 °F /  10.3 °C 29.99in /  1015.5hPa South 9.2mph /  14.8km/h 9.2mph /  14.8km/h 72% 0.00in /  0mm 383.0 W/m2 OVC
13:09 60.2 °F /  15.7 °C 50.8 °F /  10.4 °C 29.99in /  1015.5hPa SW 5.8mph /  9.3km/h 5.8mph /  9.3km/h 71% 0.00in /  0mm 332.0 W/m2 OVC
13:14 60.9 °F /  16.1 °C 50.7 °F /  10.4 °C 29.98in /  1015.1hPa South 10.4mph /  16.7km/h 10.4mph /  16.7km/h 69% 0.00in /  0mm 436.0 W/m2 OVC
13:19 61.1 °F /  16.2 °C 50.8 °F /  10.4 °C 29.97in /  1014.8hPa SSW 5.8mph /  9.3km/h 5.8mph /  9.3km/h 69% 0.00in /  0mm 424.0 W/m2 OVC
13:24 61.1 °F /  16.2 °C 50.8 °F /  10.4 °C 29.98in /  1015.1hPa South 11.5mph /  18.5km/h 11.5mph /  18.5km/h 69% 0.00in /  0mm 459.0 W/m2 OVC
13:29 60.9 °F /  16.1 °C 51.0 °F /  10.6 °C 29.97in /  1014.8hPa SSW 5.8mph /  9.3km/h 5.8mph /  9.3km/h 70% 0.00in /  0mm 436.0 W/m2 OVC
13:34 61.4 °F /  16.3 °C 51.1 °F /  10.6 °C 29.98in /  1015.1hPa South 6.9mph /  11.1km/h 6.9mph /  11.1km/h 69% 0.00in /  0mm 410.0 W/m2 OVC
13:39 61.0 °F /  16.1 °C 51.1 °F /  10.6 °C 29.97in /  1014.8hPa SSW 5.8mph /  9.3km/h 5.8mph /  9.3km/h 70% 0.00in /  0mm 297.0 W/m2 OVC
13:44 61.3 °F /  16.3 °C 51.0 °F /  10.6 °C 29.96in /  1014.4hPa South 7.0mph /  11.3km/h 7.0mph /  11.3km/h 69% 0.00in /  0mm 492.0 W/m2 OVC
13:49 61.5 °F /  16.4 °C 51.2 °F /  10.7 °C 29.96in /  1014.4hPa South 11.5mph /  18.5km/h 11.5mph /  18.5km/h 69% 0.00in /  0mm 410.0 W/m2 OVC
13:54 61.5 °F /  16.4 °C 51.2 °F /  10.7 °C 29.94in /  1013.8hPa SSW 9.2mph /  14.8km/h 9.2mph /  14.8km/h 69% 0.00in /  0mm 301.0 W/m2 OVC
13:59 62.0 °F /  16.7 °C 51.3 °F /  10.7 °C 29.95in /  1014.1hPa SSW 11.5mph /  18.5km/h 11.5mph /  18.5km/h 68% 0.00in /  0mm 128.0 W/m2 OVC
14:04 61.4 °F /  16.3 °C 51.5 °F /  10.8 °C 29.95in /  1014.1hPa SSW 4.6mph /  7.4km/h 4.6mph /  7.4km/h 70% 0.00in /  0mm 243.0 W/m2 OVC
14:09 61.7 °F /  16.5 °C 51.4 °F /  10.8 °C 29.95in /  1014.1hPa WSW 8.1mph /  13km/h 8.1mph /  13km/h 69% 0.00in /  0mm 174.0 W/m2 OVC
14:14 61.7 °F /  16.5 °C 51.8 °F /  11 °C 29.95in /  1014.1hPa SSW 6.0mph /  9.7km/h 6.0mph /  9.7km/h 70% 0.00in /  0mm 274.0 W/m2 OVC
14:19 61.8 °F /  16.6 °C 51.9 °F /  11.1 °C 29.94in /  1013.8hPa SSW 4.6mph /  7.4km/h 4.6mph /  7.4km/h 70% 0.00in /  0mm 193.0 W/m2 OVC
14:24 62.1 °F /  16.7 °C 51.8 °F /  11 °C 29.93in /  1013.4hPa SSW 4.6mph /  7.4km/h 4.6mph /  7.4km/h 69% 0.00in /  0mm 181.0 W/m2 OVC
14:29 62.3 °F /  16.8 °C 52.0 °F /  11.1 °C 29.93in /  1013.4hPa SSW 11.5mph /  18.5km/h 11.5mph /  18.5km/h 69% 0.00in /  0mm 246.0 W/m2 OVC
14:34 62.4 °F /  16.9 °C 52.1 °F /  11.2 °C 29.93in /  1013.4hPa SSW 4.6mph /  7.4km/h 4.6mph /  7.4km/h 69% 0.00in /  0mm 149.0 W/m2 OVC
14:39 62.4 °F /  16.9 °C 52.1 °F /  11.2 °C 29.93in /  1013.4hPa SW 5.8mph /  9.3km/h 5.8mph /  9.3km/h 69% 0.00in /  0mm 142.0 W/m2 OVC
14:44 62.3 °F /  16.8 °C 52.4 °F /  11.3 °C 29.93in /  1013.4hPa SW 8.1mph /  13km/h 8.1mph /  13km/h 70% 0.00in /  0mm 155.0 W/m2 OVC
14:50 62.2 °F /  16.8 °C 52.3 °F /  11.3 °C 29.92in /  1013.1hPa South 9.0mph /  14.5km/h 9.0mph /  14.5km/h 70% 0.00in /  0mm 171.0 W/m2 OVC
14:55 62.4 °F /  16.9 °C 52.9 °F /  11.6 °C 29.92in /  1013.1hPa SSW 3.0mph /  4.8km/h 10.0mph /  16.1km/h 71% 0.00in /  0mm 165.0 W/m2 CLR
15:00 62.8 °F /  17.1 °C 52.9 °F /  11.6 °C 29.92in /  1013.1hPa SSW 5.0mph /  8km/h 12.0mph /  19.3km/h 70% 0.00in /  0mm 118.0 W/m2 CLR
15:05 62.9 °F /  17.2 °C 53.0 °F /  11.7 °C 29.92in /  1013.1hPa SSW 3.5mph /  5.6km/h 3.5mph /  5.6km/h 70% 0.00in /  0mm 130.0 W/m2 CLR
15:10 63.3 °F /  17.4 °C 53.0 °F /  11.7 °C 29.92in /  1013.1hPa SSW 4.6mph /  7.4km/h 4.6mph /  7.4km/h 69% 0.00in /  0mm 107.0 W/m2 CLR
15:15 63.3 °F /  17.4 °C 53.0 °F /  11.7 °C 29.92in /  1013.1hPa SSW 6.9mph /  11.1km/h 6.9mph /  11.1km/h 69% 0.00in /  0mm 98.0 W/m2 CLR
15:20 63.1 °F /  17.3 °C 53.2 °F /  11.8 °C 29.91in /  1012.8hPa SSW 5.0mph /  8km/h 9.0mph /  14.5km/h 70% 0.00in /  0mm 105.0 W/m2 CLR
15:25 63.0 °F /  17.2 °C 53.0 °F /  11.7 °C 29.92in /  1013.1hPa SSW 5.0mph /  8km/h 9.0mph /  14.5km/h 70% 0.00in /  0mm 97.0 W/m2 CLR
15:30 62.8 °F /  17.1 °C 53.3 °F /  11.8 °C 29.92in /  1013.1hPa SSW 5.8mph /  9.3km/h 5.8mph /  9.3km/h 71% 0.00in /  0mm 91.0 W/m2 CLR
15:35 62.7 °F /  17.1 °C 53.2 °F /  11.8 °C 29.91in /  1012.8hPa SSW 5.8mph /  9.3km/h 5.8mph /  9.3km/h 71% 0.00in /  0mm 93.0 W/m2 CLR
15:40 62.7 °F /  17.1 °C 53.2 °F /  11.8 °C 29.91in /  1012.8hPa SSE 12.0mph /  19.3km/h 12.0mph /  19.3km/h 71% 0.00in /  0mm 111.0 W/m2 CLR
15:45 62.8 °F /  17.1 °C 53.3 °F /  11.8 °C 29.91in /  1012.8hPa SSW 8.1mph /  13km/h 8.1mph /  13km/h 71% 0.00in /  0mm 90.0 W/m2 CLR
15:50 62.7 °F /  17.1 °C 53.2 °F /  11.8 °C 29.90in /  1012.4hPa South 10.4mph /  16.7km/h 10.4mph /  16.7km/h 71% 0.00in /  0mm 84.0 W/m2 CLR
15:55 62.7 °F /  17.1 °C 53.2 °F /  11.8 °C 29.91in /  1012.8hPa South 8.1mph /  13km/h 8.1mph /  13km/h 71% 0.00in /  0mm 76.0 W/m2 CLR
16:00 62.6 °F /  17 °C 53.1 °F /  11.7 °C 29.90in /  1012.4hPa South 5.0mph /  8km/h 5.0mph /  8km/h 71% 0.00in /  0mm 62.0 W/m2 CLR
16:05 62.4 °F /  16.9 °C 53.3 °F /  11.8 °C 29.90in /  1012.4hPa SSW 4.6mph /  7.4km/h 4.6mph /  7.4km/h 72% 0.00in /  0mm 63.0 W/m2 CLR
16:10 62.4 °F /  16.9 °C 53.3 °F /  11.8 °C 29.90in /  1012.4hPa SSE 10.4mph /  16.7km/h 10.4mph /  16.7km/h 72% 0.00in /  0mm 65.0 W/m2 CLR
16:15 62.4 °F /  16.9 °C 53.3 °F /  11.8 °C 29.90in /  1012.4hPa SW 6.9mph /  11.1km/h 6.9mph /  11.1km/h 72% 0.00in /  0mm 58.0 W/m2 CLR
16:20 62.3 °F /  16.8 °C 53.2 °F /  11.8 °C 29.90in /  1012.4hPa SSW 6.9mph /  11.1km/h 6.9mph /  11.1km/h 72% 0.00in /  0mm 56.0 W/m2 CLR
16:25 62.2 °F /  16.8 °C 53.1 °F /  11.7 °C 29.90in /  1012.4hPa South 4.6mph /  7.4km/h 4.6mph /  7.4km/h 72% 0.00in /  0mm 51.0 W/m2 CLR
16:30 62.1 °F /  16.7 °C 53.0 °F /  11.7 °C 29.89in /  1012.1hPa SSW 3.5mph /  5.6km/h 3.5mph /  5.6km/h 72% 0.00in /  0mm 47.0 W/m2 CLR
16:35 62.0 °F /  16.7 °C 52.9 °F /  11.6 °C 29.89in /  1012.1hPa SSE 3.5mph /  5.6km/h 3.5mph /  5.6km/h 72% 0.00in /  0mm 42.0 W/m2 CLR
16:40 62.0 °F /  16.7 °C 53.2 °F /  11.8 °C 29.89in /  1012.1hPa SSW 3.5mph /  5.6km/h 3.5mph /  5.6km/h 73% 0.00in /  0mm 37.0 W/m2 CLR
16:45 62.0 °F /  16.7 °C 53.2 °F /  11.8 °C 29.89in /  1012.1hPa SSW 5.8mph /  9.3km/h 5.8mph /  9.3km/h 73% 0.00in /  0mm 35.0 W/m2 CLR
16:50 61.9 °F /  16.6 °C 53.1 °F /  11.7 °C 29.89in /  1012.1hPa SW 3.5mph /  5.6km/h 3.5mph /  5.6km/h 73% 0.00in /  0mm 33.0 W/m2 CLR
16:55 61.9 °F /  16.6 °C 53.1 °F /  11.7 °C 29.89in /  1012.1hPa South 10.0mph /  16.1km/h 10.0mph /  16.1km/h 73% 0.00in /  0mm 32.0 W/m2 CLR
17:00 61.9 °F /  16.6 °C 53.1 °F /  11.7 °C 29.89in /  1012.1hPa SSE 5.0mph /  8km/h 5.0mph /  8km/h 73% 0.00in /  0mm 28.0 W/m2 CLR
17:05 61.8 °F /  16.6 °C 53.1 °F /  11.7 °C 29.89in /  1012.1hPa SSE 3.5mph /  5.6km/h 3.5mph /  5.6km/h 73% 0.00in /  0mm 25.0 W/m2 CLR
17:10 61.5 °F /  16.4 °C 53.1 °F /  11.7 °C 29.89in /  1012.1hPa SSW 3.5mph /  5.6km/h 3.5mph /  5.6km/h 74% 0.00in /  0mm 19.0 W/m2 CLR
17:15 61.3 °F /  16.3 °C 52.6 °F /  11.4 °C 29.89in /  1012.1hPa SSW 2.0mph /  3.2km/h 4.0mph /  6.4km/h 73% 0.00in /  0mm 16.0 W/m2 CLR
17:20 60.9 °F /  16.1 °C 52.6 °F /  11.4 °C 29.89in /  1012.1hPa SSW 2.3mph /  3.7km/h 2.3mph /  3.7km/h 74% 0.00in /  0mm 12.0 W/m2 CLR
17:25 60.6 °F /  15.9 °C 52.3 °F /  11.3 °C 29.88in /  1011.7hPa SSW 2.3mph /  3.7km/h 2.3mph /  3.7km/h 74% 0.00in /  0mm 9.0 W/m2 CLR
17:30 60.2 °F /  15.7 °C 52.2 °F /  11.2 °C 29.89in /  1012.1hPa SSW 1.0mph /  1.6km/h 3.0mph /  4.8km/h 75% 0.00in /  0mm 7.0 W/m2 CLR
17:35 59.6 °F /  15.3 °C 51.7 °F /  10.9 °C 29.88in /  1011.7hPa SSW 1.0mph /  1.6km/h 2.0mph /  3.2km/h 75% 0.00in /  0mm 0.0 W/m2 CLR
17:40 58.9 °F /  14.9 °C 51.7 °F /  10.9 °C 29.89in /  1012.1hPa SSW 2.3mph /  3.7km/h 2.3mph /  3.7km/h 77% 0.00in /  0mm 0.0 W/m2 CLR
17:45 58.5 °F /  14.7 °C 51.7 °F /  10.9 °C 29.89in /  1012.1hPa Calm     78% 0.00in /  0mm 0.0 W/m2 CLR
17:50 57.9 °F /  14.4 °C 51.1 °F /  10.6 °C 29.89in /  1012.1hPa Calm     78% 0.00in /  0mm 0.0 W/m2 CLR
17:55 57.4 °F /  14.1 °C 50.9 °F /  10.5 °C 29.89in /  1012.1hPa Calm     79% 0.00in /  0mm 0.0 W/m2 CLR
18:00 57.1 °F /  13.9 °C 51.0 °F /  10.6 °C 29.89in /  1012.1hPa Calm     80% 0.00in /  0mm 0.0 W/m2 CLR
18:05 56.7 °F /  13.7 °C 50.9 °F /  10.5 °C 29.89in /  1012.1hPa SSW 1.0mph /  1.6km/h   81% 0.00in /  0mm 0.0 W/m2 CLR
18:10 56.4 °F /  13.6 °C 50.6 °F /  10.3 °C 29.89in /  1012.1hPa Calm     81% 0.00in /  0mm 0.0 W/m2 CLR
18:15 56.2 °F /  13.4 °C 50.8 °F /  10.4 °C 29.89in /  1012.1hPa Calm     82% 0.00in /  0mm 0.0 W/m2 CLR
18:20 56.0 °F /  13.3 °C 50.9 °F /  10.5 °C 29.89in /  1012.1hPa SSW 3.5mph /  5.6km/h 3.5mph /  5.6km/h 83% 0.00in /  0mm 0.0 W/m2 CLR
18:25 56.2 °F /  13.4 °C 51.4 °F /  10.8 °C 29.89in /  1012.1hPa SSW 2.0mph /  3.2km/h 3.0mph /  4.8km/h 84% 0.00in /  0mm 0.0 W/m2 CLR
18:30 56.6 °F /  13.7 °C 51.5 °F /  10.8 °C 29.89in /  1012.1hPa SSW 3.5mph /  5.6km/h 3.5mph /  5.6km/h 83% 0.00in /  0mm 0.0 W/m2 CLR
18:35 57.1 °F /  13.9 °C 51.7 °F /  10.9 °C 29.89in /  1012.1hPa SSW 3.5mph /  5.6km/h 3.5mph /  5.6km/h 82% 0.00in /  0mm 0.0 W/m2 CLR
18:40 57.3 °F /  14.1 °C 51.9 °F /  11.1 °C 29.89in /  1012.1hPa SSE 3.5mph /  5.6km/h 3.5mph /  5.6km/h 82% 0.00in /  0mm 0.0 W/m2 CLR
18:45 57.4 °F /  14.1 °C 51.6 °F /  10.9 °C 29.89in /  1012.1hPa SSW 3.5mph /  5.6km/h 3.5mph /  5.6km/h 81% 0.00in /  0mm 0.0 W/m2 CLR
18:50 57.3 °F /  14.1 °C 51.5 °F /  10.8 °C 29.89in /  1012.1hPa SSW 2.3mph /  3.7km/h 2.3mph /  3.7km/h 81% 0.00in /  0mm 0.0 W/m2 CLR
18:55 57.3 °F /  14.1 °C 51.5 °F /  10.8 °C 29.89in /  1012.1hPa South 1.0mph /  1.6km/h 3.0mph /  4.8km/h 81% 0.00in /  0mm 0.0 W/m2 CLR
19:00 57.2 °F /  14 °C 51.8 °F /  11 °C 29.89in /  1012.1hPa SSW 3.5mph /  5.6km/h 3.5mph /  5.6km/h 82% 0.00in /  0mm 0.0 W/m2 CLR
19:05 57.3 °F /  14.1 °C 51.5 °F /  10.8 °C 29.89in /  1012.1hPa South 2.0mph /  3.2km/h 4.0mph /  6.4km/h 81% 0.00in /  0mm 0.0 W/m2 CLR
19:10 57.2 °F /  14 °C 51.4 °F /  10.8 °C 29.89in /  1012.1hPa South 3.0mph /  4.8km/h 3.0mph /  4.8km/h 81% 0.00in /  0mm 0.0 W/m2 CLR
19:15 57.2 °F /  14 °C 51.4 °F /  10.8 °C 29.89in /  1012.1hPa South 1.0mph /  1.6km/h 3.0mph /  4.8km/h 81% 0.00in /  0mm 0.0 W/m2 CLR
19:20 56.9 °F /  13.8 °C 51.5 °F /  10.8 °C 29.88in /  1011.7hPa South 1.0mph /  1.6km/h 3.0mph /  4.8km/h 82% 0.00in /  0mm 0.0 W/m2 CLR
19:25 56.8 °F /  13.8 °C 51.4 °F /  10.8 °C 29.89in /  1012.1hPa South 2.0mph /  3.2km/h 3.0mph /  4.8km/h 82% 0.00in /  0mm 0.0 W/m2 CLR
19:30 56.7 °F /  13.7 °C 51.3 °F /  10.7 °C 29.89in /  1012.1hPa South 1.2mph /  1.9km/h 1.6mph /  2.6km/h 82% 0.00in /  0mm 0.0 W/m2 CLR
19:35 56.5 °F /  13.6 °C 51.1 °F /  10.6 °C 29.89in /  1012.1hPa South 2.3mph /  3.7km/h 2.3mph /  3.7km/h 82% 0.00in /  0mm 0.0 W/m2 CLR
19:40 56.3 °F /  13.5 °C 50.9 °F /  10.5 °C 29.88in /  1011.7hPa Calm   2.0mph /  3.2km/h 82% 0.00in /  0mm 0.0 W/m2 CLR
19:45 56.0 °F /  13.3 °C 50.6 °F /  10.3 °C 29.89in /  1012.1hPa Calm     82% 0.00in /  0mm 0.0 W/m2 CLR
19:50 55.5 °F /  13.1 °C 50.1 °F /  10.1 °C 29.89in /  1012.1hPa Calm     82% 0.00in /  0mm 0.0 W/m2 CLR
19:55 55.1 °F /  12.8 °C 50.0 °F /  10 °C 29.89in /  1012.1hPa Calm     83% 0.00in /  0mm 0.0 W/m2 CLR
20:00 54.6 °F /  12.6 °C 50.2 °F /  10.1 °C 29.89in /  1012.1hPa SSW 2.3mph /  3.7km/h 2.3mph /  3.7km/h 85% 0.00in /  0mm 0.0 W/m2 CLR
20:05 54.6 °F /  12.6 °C 50.5 °F /  10.3 °C 29.89in /  1012.1hPa SSW 1.2mph /  1.9km/h 1.2mph /  1.9km/h 86% 0.00in /  0mm 0.0 W/m2 CLR
20:10 54.7 °F /  12.6 °C 50.3 °F /  10.2 °C 29.89in /  1012.1hPa SSW 2.3mph /  3.7km/h 2.3mph /  3.7km/h 85% 0.00in /  0mm 0.0 W/m2 CLR
20:15 54.5 °F /  12.5 °C 50.1 °F /  10.1 °C 29.88in /  1011.7hPa SSW 1.2mph /  1.9km/h 1.2mph /  1.9km/h 85% 0.00in /  0mm 0.0 W/m2 CLR
20:20 54.4 °F /  12.4 °C 50.0 °F /  10 °C 29.88in /  1011.7hPa SSW 2.3mph /  3.7km/h 2.3mph /  3.7km/h 85% 0.00in /  0mm 0.0 W/m2 CLR
20:25 54.2 °F /  12.3 °C 49.8 °F /  9.9 °C 29.89in /  1012.1hPa SSW 1.0mph /  1.6km/h 2.0mph /  3.2km/h 85% 0.00in /  0mm 0.0 W/m2 CLR
20:30 54.0 °F /  12.2 °C 49.9 °F /  9.9 °C 29.89in /  1012.1hPa SSW 2.3mph /  3.7km/h 2.3mph /  3.7km/h 86% 0.00in /  0mm 0.0 W/m2 CLR
20:35 54.2 °F /  12.3 °C 50.4 °F /  10.2 °C 29.88in /  1011.7hPa SSW 2.3mph /  3.7km/h 2.3mph /  3.7km/h 87% 0.00in /  0mm 0.0 W/m2 CLR
20:40 54.6 °F /  12.6 °C 50.5 °F /  10.3 °C 29.89in /  1012.1hPa SSW 3.5mph /  5.6km/h 3.5mph /  5.6km/h 86% 0.00in /  0mm 0.0 W/m2 CLR
20:45 54.6 °F /  12.6 °C 50.2 °F /  10.1 °C 29.89in /  1012.1hPa SSW 2.3mph /  3.7km/h 2.3mph /  3.7km/h 85% 0.00in /  0mm 0.0 W/m2 CLR
20:50 54.3 °F /  12.4 °C 49.9 °F /  9.9 °C 29.89in /  1012.1hPa SSW 2.3mph /  3.7km/h 2.3mph /  3.7km/h 85% 0.00in /  0mm 0.0 W/m2 CLR
20:55 54.0 °F /  12.2 °C 49.9 °F /  9.9 °C 29.88in /  1011.7hPa SSW 2.3mph /  3.7km/h 2.3mph /  3.7km/h 86% 0.00in /  0mm 0.0 W/m2 CLR
21:00 53.9 °F /  12.2 °C 49.8 °F /  9.9 °C 29.88in /  1011.7hPa SSW 2.3mph /  3.7km/h 2.3mph /  3.7km/h 86% 0.00in /  0mm 0.0 W/m2 CLR
21:05 53.8 °F /  12.1 °C 49.7 °F /  9.8 °C 29.88in /  1011.7hPa SSW 2.3mph /  3.7km/h 2.3mph /  3.7km/h 86% 0.00in /  0mm 0.0 W/m2 CLR
21:10 53.6 °F /  12 °C 49.5 °F /  9.7 °C 29.88in /  1011.7hPa SSW 2.3mph /  3.7km/h 2.3mph /  3.7km/h 86% 0.00in /  0mm 0.0 W/m2 CLR
21:15 53.2 °F /  11.8 °C 49.4 °F /  9.7 °C 29.88in /  1011.7hPa SSW 2.3mph /  3.7km/h 2.3mph /  3.7km/h 87% 0.00in /  0mm 0.0 W/m2 CLR
21:20 52.9 °F /  11.6 °C 49.4 °F /  9.7 °C 29.88in /  1011.7hPa SSW 2.3mph /  3.7km/h 2.3mph /  3.7km/h 88% 0.00in /  0mm 0.0 W/m2 CLR
21:25 52.8 °F /  11.6 °C 49.3 °F /  9.6 °C 29.88in /  1011.7hPa Calm     88% 0.00in /  0mm 0.0 W/m2 CLR
21:30 52.7 °F /  11.5 °C 48.9 °F /  9.4 °C 29.88in /  1011.7hPa Calm     87% 0.00in /  0mm 0.0 W/m2 CLR
21:35 52.5 °F /  11.4 °C 49.0 °F /  9.4 °C 29.88in /  1011.7hPa Calm     88% 0.00in /  0mm 0.0 W/m2 CLR
21:40 52.5 °F /  11.4 °C 49.0 °F /  9.4 °C 29.88in /  1011.7hPa Calm     88% 0.00in /  0mm 0.0 W/m2 CLR
21:45 52.4 °F /  11.3 °C 48.9 °F /  9.4 °C 29.88in /  1011.7hPa Calm     88% 0.00in /  0mm 0.0 W/m2 CLR
21:50 52.3 °F /  11.3 °C 48.9 °F /  9.4 °C 29.88in /  1011.7hPa Calm     88% 0.00in /  0mm 0.0 W/m2 CLR
21:55 52.3 °F /  11.3 °C 49.2 °F /  9.6 °C 29.88in /  1011.7hPa Calm     89% 0.00in /  0mm 0.0 W/m2 CLR
22:00 52.1 °F /  11.2 °C 48.7 °F /  9.3 °C 29.88in /  1011.7hPa Calm     88% 0.00in /  0mm 0.0 W/m2 CLR
22:05 51.9 °F /  11.1 °C 48.8 °F /  9.3 °C 29.88in /  1011.7hPa Calm     89% 0.00in /  0mm 0.0 W/m2 CLR
22:10 51.7 °F /  10.9 °C 48.6 °F /  9.2 °C 29.88in /  1011.7hPa Calm     89% 0.00in /  0mm 0.0 W/m2 CLR
22:15 51.6 °F /  10.9 °C 48.8 °F /  9.3 °C 29.87in /  1011.4hPa Calm     90% 0.00in /  0mm 0.0 W/m2 CLR
22:20 51.8 °F /  11 °C 49.3 °F /  9.6 °C 29.88in /  1011.7hPa Calm     91% 0.00in /  0mm 0.0 W/m2 CLR
22:25 52.0 °F /  11.1 °C 49.2 °F /  9.6 °C 29.87in /  1011.4hPa Calm     90% 0.00in /  0mm 0.0 W/m2 CLR
22:30 52.0 °F /  11.1 °C 49.2 °F /  9.6 °C 29.87in /  1011.4hPa Calm     90% 0.00in /  0mm 0.0 W/m2 CLR
22:35 52.0 °F /  11.1 °C 49.2 °F /  9.6 °C 29.88in /  1011.7hPa Calm     90% 0.00in /  0mm 0.0 W/m2 CLR
22:40 51.8 °F /  11 °C 48.4 °F /  9.1 °C 29.88in /  1011.7hPa Calm     88% 0.00in /  0mm 0.0 W/m2 CLR
22:45 51.2 °F /  10.7 °C 48.1 °F /  8.9 °C 29.88in /  1011.7hPa Calm     89% 0.00in /  0mm 0.0 W/m2 CLR
22:50 50.8 °F /  10.4 °C 47.7 °F /  8.7 °C 29.88in /  1011.7hPa Calm     89% 0.00in /  0mm 0.0 W/m2 CLR
22:55 50.4 °F /  10.2 °C 47.6 °F /  8.7 °C 29.88in /  1011.7hPa Calm     90% 0.00in /  0mm 0.0 W/m2 CLR
23:00 50.1 °F /  10.1 °C 47.3 °F /  8.5 °C 29.88in /  1011.7hPa Calm     90% 0.00in /  0mm 0.0 W/m2 CLR
23:05 49.8 °F /  9.9 °C 47.0 °F /  8.3 °C 29.88in /  1011.7hPa Calm     90% 0.00in /  0mm 0.0 W/m2 CLR
23:10 49.5 °F /  9.7 °C 47.0 °F /  8.3 °C 29.87in /  1011.4hPa Calm     91% 0.00in /  0mm 0.0 W/m2 CLR
23:15 49.4 °F /  9.7 °C 46.9 °F /  8.3 °C 29.87in /  1011.4hPa Calm     91% 0.00in /  0mm 0.0 W/m2 CLR
23:20 49.2 °F /  9.6 °C 47.0 °F /  8.3 °C 29.87in /  1011.4hPa Calm     92% 0.00in /  0mm 0.0 W/m2 CLR
23:25 49.0 °F /  9.4 °C 46.8 °F /  8.2 °C 29.87in /  1011.4hPa Calm     92% 0.00in /  0mm 0.0 W/m2 CLR
23:30 48.8 °F /  9.3 °C 46.6 °F /  8.1 °C 29.87in /  1011.4hPa SSW 1.0mph /  1.6km/h 1.0mph /  1.6km/h 92% 0.00in /  0mm 0.0 W/m2 CLR
23:35 48.8 °F /  9.3 °C 46.9 °F /  8.3 °C 29.88in /  1011.7hPa SSW 1.2mph /  1.9km/h   93% 0.00in /  0mm 0.0 W/m2 CLR
23:40 48.7 °F /  9.3 °C 46.8 °F /  8.2 °C 29.88in /  1011.7hPa Calm     93% 0.00in /  0mm 0.0 W/m2 CLR
23:45 48.8 °F /  9.3 °C 47.2 °F /  8.4 °C 29.87in /  1011.4hPa SSW 2.3mph /  3.7km/h 2.3mph /  3.7km/h 94% 0.00in /  0mm 0.0 W/m2 CLR
23:50 48.9 °F /  9.4 °C 47.2 °F /  8.4 °C 29.87in /  1011.4hPa South 2.3mph /  3.7km/h 2.3mph /  3.7km/h 94% 0.00in /  0mm 0.0 W/m2 CLR
23:55 48.7 °F /  9.3 °C 47.1 °F /  8.4 °C 29.87in /  1011.4hPa South 3.0mph /  4.8km/h 3.0mph /  4.8km/h 94% 0.00in /  0mm 0.0 W/m2 CLR
Fulton, MO, USA
Compliments of Weather Underground - 2.25 mb